createdAt,value
2023-04-06T00:02:12.688Z,85.84
2023-04-06T00:04:40.980Z,87.33
2023-04-06T00:07:08.448Z,88.83
2023-04-06T00:09:39.150Z,90.07
2023-04-06T00:12:08.290Z,91.53
2023-04-06T00:14:35.900Z,91.12
2023-04-06T00:17:04.146Z,90.38
2023-04-06T00:19:31.162Z,89.38
2023-04-06T00:22:09.278Z,88.34
2023-04-06T00:24:42.832Z,87.69
2023-04-06T00:27:13.904Z,87.55
2023-04-06T00:29:42.299Z,88.40
2023-04-06T00:32:12.322Z,86.26
2023-04-06T00:34:42.879Z,84.81
2023-04-06T00:37:12.899Z,84.45
2023-04-06T00:39:41.675Z,83.80
2023-04-06T00:42:15.507Z,84.17
2023-04-06T00:44:45.928Z,84.29
2023-04-06T00:47:15.193Z,83.85
2023-04-06T00:49:42.218Z,82.78
2023-04-06T00:52:11.197Z,83.00
2023-04-06T00:54:38.471Z,85.03
2023-04-06T00:57:14.598Z,86.27
2023-04-06T00:59:50.636Z,86.56
2023-04-06T01:02:18.710Z,87.30
2023-04-06T01:04:46.879Z,87.19
2023-04-06T01:07:13.761Z,87.26
2023-04-06T01:09:43.293Z,87.50
2023-04-06T01:12:15.776Z,87.83
2023-04-06T01:14:44.188Z,87.58
2023-04-06T01:17:15.157Z,87.06
2023-04-06T01:19:46.512Z,87.57
2023-04-06T01:22:21.665Z,88.06
2023-04-06T01:24:49.059Z,87.45
2023-04-06T01:27:17.372Z,87.19
2023-04-06T01:29:44.539Z,87.66
2023-04-06T01:32:23.166Z,88.03
2023-04-06T01:34:50.683Z,88.04
2023-04-06T01:37:19.944Z,87.66
2023-04-06T01:39:48.768Z,87.38
2023-04-06T01:42:21.355Z,87.46
2023-04-06T01:44:51.470Z,87.13
2023-04-06T01:47:23.271Z,87.46
2023-04-06T01:49:53.408Z,88.19
2023-04-06T01:52:26.205Z,88.92
2023-04-06T01:54:54.310Z,89.00
2023-04-06T01:57:22.012Z,89.32
2023-04-06T01:59:52.004Z,88.55
2023-04-06T02:02:20.064Z,88.11
2023-04-06T02:04:54.368Z,88.92
2023-04-06T02:07:22.752Z,89.29
2023-04-06T02:09:55.805Z,89.69
2023-04-06T02:12:29.131Z,90.62
2023-04-06T02:14:57.713Z,91.10
2023-04-06T02:17:25.529Z,92.62
2023-04-06T02:19:52.804Z,92.79
2023-04-06T02:22:19.798Z,93.43
2023-04-06T02:24:50.605Z,93.92
2023-04-06T02:27:21.125Z,94.62
2023-04-06T02:29:48.452Z,95.36
2023-04-06T02:32:15.662Z,96.83
2023-04-06T02:34:42.939Z,98.05
2023-04-06T02:37:13.272Z,97.88
2023-04-06T02:39:44.084Z,99.60
2023-04-06T02:42:13.659Z,100.00
2023-04-06T02:44:42.657Z,100.00
2023-04-06T02:47:12.289Z,100.00
2023-04-06T02:49:39.096Z,100.00
2023-04-06T02:52:08.381Z,100.00
2023-04-06T02:54:38.219Z,100.00
2023-04-06T02:57:05.765Z,100.00
2023-04-06T02:59:32.889Z,100.00
2023-04-06T03:01:59.867Z,100.00
2023-04-06T03:04:26.795Z,100.00
2023-04-06T03:06:55.472Z,100.00
2023-04-06T03:09:23.973Z,100.00
2023-04-06T03:11:52.249Z,100.00
2023-04-06T03:14:23.391Z,100.00
2023-04-06T03:16:54.947Z,100.00
2023-04-06T03:19:22.649Z,100.00
2023-04-06T03:21:50.876Z,100.00
2023-04-06T03:24:17.824Z,100.00
2023-04-06T03:26:47.731Z,100.00
2023-04-06T03:29:14.722Z,100.00
2023-04-06T03:31:41.710Z,100.00
2023-04-06T03:34:08.866Z,100.00
2023-04-06T03:36:38.236Z,100.00
2023-04-06T03:39:11.783Z,100.00
2023-04-06T03:41:39.571Z,100.00
2023-04-06T03:44:08.642Z,100.00
2023-04-06T03:46:35.557Z,100.00
2023-04-06T03:49:02.435Z,100.00
2023-04-06T03:51:30.325Z,100.00
2023-04-06T03:53:57.027Z,100.00
2023-04-06T03:56:24.400Z,100.00
2023-04-06T03:58:54.488Z,100.00
2023-04-06T04:01:26.958Z,100.00
2023-04-06T04:03:56.243Z,100.00
2023-04-06T04:06:25.655Z,100.00
2023-04-06T04:08:52.432Z,100.00
2023-04-06T04:11:19.336Z,100.00
2023-04-06T04:13:46.615Z,100.00
2023-04-06T04:16:13.717Z,100.00
2023-04-06T04:18:41.224Z,100.00
2023-04-06T04:21:11.047Z,100.00
2023-04-06T04:23:38.410Z,100.00
2023-04-06T04:26:08.459Z,100.00
2023-04-06T04:28:43.462Z,100.00
2023-04-06T04:31:11.873Z,100.00
2023-04-06T04:33:39.366Z,100.00
2023-04-06T04:36:15.376Z,100.00
2023-04-06T04:38:43.409Z,100.00
2023-04-06T04:41:12.027Z,100.00
2023-04-06T04:43:39.501Z,100.00
2023-04-06T04:46:07.641Z,100.00
2023-04-06T04:48:34.268Z,100.00
2023-04-06T04:51:10.305Z,100.00
2023-04-06T04:53:41.816Z,100.00
2023-04-06T04:56:10.523Z,100.00
2023-04-06T04:58:40.616Z,100.00
2023-04-06T05:01:07.743Z,100.00
2023-04-06T05:03:41.586Z,100.00
2023-04-06T05:06:13.296Z,100.00
2023-04-06T05:08:40.969Z,100.00
2023-04-06T05:11:08.535Z,100.00
2023-04-06T05:13:36.292Z,100.00
2023-04-06T05:16:03.317Z,100.00
2023-04-06T05:18:32.120Z,100.00
2023-04-06T05:21:29.183Z,100.00
2023-04-06T05:23:57.562Z,100.00
2023-04-06T05:26:30.700Z,100.00
2023-04-06T05:29:00.845Z,100.00
2023-04-06T05:31:28.190Z,100.00
2023-04-06T05:33:55.543Z,100.00
2023-04-06T05:36:27.678Z,100.00
2023-04-06T05:38:58.116Z,100.00
2023-04-06T05:41:32.082Z,100.00
2023-04-06T05:43:59.378Z,100.00
2023-04-06T05:46:26.446Z,100.00
2023-04-06T05:48:53.516Z,100.00
2023-04-06T05:51:21.384Z,100.00
2023-04-06T05:53:48.495Z,100.00
2023-04-06T05:56:26.668Z,100.00
2023-04-06T05:59:00.883Z,100.00
2023-04-06T06:01:32.578Z,100.00
2023-04-06T06:04:09.591Z,100.00
2023-04-06T06:06:46.979Z,100.00
2023-04-06T06:09:14.495Z,100.00
2023-04-06T06:11:46.130Z,100.00
2023-04-06T06:14:23.748Z,100.00
2023-04-06T06:17:01.119Z,100.00
2023-04-06T06:19:38.838Z,100.00
2023-04-06T06:22:07.625Z,100.00
2023-04-06T06:24:35.085Z,100.00
2023-04-06T06:27:11.216Z,100.00
2023-04-06T06:29:39.153Z,100.00
2023-04-06T06:32:06.436Z,100.00
2023-04-06T06:34:44.289Z,100.00
2023-04-06T06:37:15.115Z,100.00
2023-04-06T06:39:42.609Z,100.00
2023-04-06T06:42:33.773Z,100.00
2023-04-06T06:45:12.030Z,100.00
2023-04-06T06:47:39.137Z,100.00
2023-04-06T06:50:08.359Z,100.00
2023-04-06T06:52:35.493Z,100.00
2023-04-06T06:55:03.772Z,100.00
2023-04-06T06:57:31.565Z,100.00
2023-04-06T07:00:01.763Z,97.57
2023-04-06T07:02:42.726Z,94.47
2023-04-06T07:05:28.565Z,92.31
2023-04-06T07:07:59.132Z,86.02
2023-04-06T07:10:31.173Z,79.97
2023-04-06T07:12:58.050Z,75.25
2023-04-06T07:18:06.507Z,67.12
2023-04-06T07:20:38.017Z,68.01
2023-04-06T07:23:06.977Z,65.78
2023-04-06T07:25:33.704Z,61.45
2023-04-06T07:28:02.721Z,59.07
2023-04-06T07:30:35.044Z,57.91
2023-04-06T07:33:05.628Z,58.31
2023-04-06T07:35:42.131Z,56.54
2023-04-06T07:38:09.077Z,57.14
2023-04-06T07:40:37.179Z,56.81
2023-04-06T07:45:59.766Z,55.54
2023-04-06T07:48:26.809Z,55.53
2023-04-06T07:50:53.900Z,51.68
2023-04-06T07:53:22.021Z,52.11
2023-04-06T07:55:48.851Z,51.29
2023-04-06T07:58:17.750Z,49.33
2023-04-06T08:00:44.754Z,49.82
2023-04-06T08:03:12.175Z,48.98
2023-04-06T08:05:39.432Z,48.98
2023-04-06T08:08:06.426Z,47.38
2023-04-06T08:10:40.189Z,46.95
2023-04-06T08:13:10.920Z,47.06
2023-04-06T08:18:25.072Z,45.58
2023-04-06T08:20:53.327Z,46.55
2023-04-06T08:23:24.847Z,47.59
2023-04-06T08:25:55.267Z,48.41
2023-04-06T08:28:22.758Z,50.00
2023-04-06T08:30:57.697Z,50.32
2023-04-06T08:33:25.927Z,50.85
2023-04-06T08:36:02.155Z,50.78
2023-04-06T08:38:30.951Z,50.75
2023-04-06T08:40:59.270Z,49.86
2023-04-06T08:43:29.397Z,49.84
2023-04-06T08:45:59.225Z,50.05
2023-04-06T08:48:28.208Z,47.28
2023-04-06T08:51:01.996Z,46.99
2023-04-06T08:53:29.188Z,46.60
2023-04-06T08:55:59.286Z,46.95
2023-04-06T09:01:52.073Z,47.00
2023-04-06T09:04:28.781Z,46.51
2023-04-06T09:06:56.079Z,45.51
2023-04-06T09:09:30.364Z,46.12
2023-04-06T09:12:02.291Z,44.82
2023-04-06T09:14:53.259Z,45.33
2023-04-06T09:17:25.562Z,45.89
2023-04-06T09:20:02.321Z,45.51
2023-04-06T09:22:42.311Z,45.98
2023-04-06T09:25:17.205Z,45.44
2023-04-06T09:27:47.916Z,45.11
2023-04-06T09:30:19.617Z,44.55
2023-04-06T09:35:34.240Z,44.09
2023-04-06T09:38:22.243Z,44.96
2023-04-06T09:41:00.108Z,44.71
2023-04-06T09:43:28.859Z,45.36
2023-04-06T09:45:58.706Z,45.83
2023-04-06T09:48:33.679Z,46.92
2023-04-06T09:51:04.476Z,46.84
2023-04-06T09:53:34.458Z,45.44
2023-04-06T09:56:10.881Z,46.31
2023-04-06T09:58:49.828Z,45.48
2023-04-06T10:01:21.541Z,45.25
2023-04-06T10:04:08.964Z,45.68
2023-04-06T10:06:41.519Z,43.83
2023-04-06T10:09:14.901Z,43.52
2023-04-06T10:14:27.743Z,42.01
2023-04-06T10:17:03.846Z,41.48
2023-04-06T10:20:04.940Z,41.72
2023-04-06T10:23:07.181Z,42.03
2023-04-06T10:25:56.613Z,41.96
2023-04-06T10:28:25.865Z,42.33
2023-04-06T10:36:52.284Z,40.93
2023-04-06T10:39:30.243Z,41.16
2023-04-06T10:44:35.226Z,42.36
2023-04-06T10:47:07.304Z,42.93
2023-04-06T10:49:39.659Z,42.14
2023-04-06T10:52:08.715Z,41.16
2023-04-06T10:57:33.652Z,40.45
2023-04-06T11:00:00.671Z,39.59
2023-04-06T11:02:29.745Z,38.68
2023-04-06T11:05:00.773Z,38.40
2023-04-06T11:07:30.653Z,38.52
2023-04-06T11:10:16.598Z,39.11
2023-04-06T11:12:45.542Z,38.44
2023-04-06T11:15:13.311Z,38.23
2023-04-06T11:17:42.913Z,38.09
2023-04-06T11:20:12.564Z,38.25
2023-04-06T11:22:57.778Z,36.63
2023-04-06T11:25:27.300Z,36.05
2023-04-06T11:27:58.188Z,36.11
2023-04-06T11:30:34.317Z,37.38
2023-04-06T11:33:04.143Z,37.88
2023-04-06T11:35:32.611Z,37.70
2023-04-06T11:40:54.380Z,36.56
2023-04-06T11:43:34.884Z,36.38
2023-04-06T11:46:05.676Z,35.55
2023-04-06T11:48:36.174Z,35.77
2023-04-06T11:51:03.201Z,36.32
2023-04-06T11:53:31.019Z,37.06
2023-04-06T11:58:38.994Z,37.33
2023-04-06T12:01:06.089Z,36.35
2023-04-06T12:03:34.472Z,36.67
2023-04-06T12:06:06.608Z,37.00
2023-04-06T12:08:38.674Z,36.09
2023-04-06T12:11:18.952Z,35.73
2023-04-06T12:13:49.251Z,36.51
2023-04-06T12:16:24.039Z,34.07
2023-04-06T12:18:53.805Z,34.00
2023-04-06T12:21:22.641Z,33.47
2023-04-06T12:23:50.255Z,33.92
2023-04-06T12:26:20.710Z,33.99
2023-04-06T12:31:43.749Z,34.14
2023-04-06T12:34:15.786Z,32.30
2023-04-06T12:36:47.632Z,31.95
2023-04-06T12:50:19.952Z,32.77
2023-04-06T12:52:50.553Z,32.31
2023-04-06T12:55:26.545Z,33.09
2023-04-06T12:57:53.552Z,32.34
2023-04-06T13:00:24.385Z,32.52
2023-04-06T13:02:51.190Z,31.87
2023-04-06T13:05:20.054Z,31.99
2023-04-06T13:10:29.723Z,33.21
2023-04-06T13:12:56.381Z,32.70
2023-04-06T13:15:27.580Z,32.17
2023-04-06T13:17:59.861Z,32.63
2023-04-06T13:20:27.297Z,32.98
2023-04-06T13:22:55.623Z,32.91
2023-04-06T13:25:32.149Z,32.66
2023-04-06T13:27:59.399Z,32.32
2023-04-06T13:30:28.911Z,32.73
2023-04-06T13:32:57.250Z,33.74
2023-04-06T13:35:28.232Z,34.27
2023-04-06T13:37:57.324Z,32.87
2023-04-06T13:40:25.360Z,33.18
2023-04-06T13:42:58.056Z,32.48
2023-04-06T13:45:25.415Z,32.25
2023-04-06T13:47:53.403Z,32.07
2023-04-06T13:50:31.298Z,32.88
2023-04-06T13:52:58.785Z,32.08
2023-04-06T13:55:27.143Z,32.12
2023-04-06T13:57:54.657Z,31.80
2023-04-06T14:00:24.032Z,31.80
2023-04-06T14:02:55.985Z,30.95
2023-04-06T14:05:24.959Z,31.90
2023-04-06T14:07:54.440Z,31.15
2023-04-06T14:10:24.781Z,31.00
2023-04-06T14:12:53.532Z,31.38
2023-04-06T14:15:25.248Z,30.97
2023-04-06T14:17:55.496Z,31.30
2023-04-06T14:20:23.928Z,31.25
2023-04-06T14:22:53.432Z,31.63
2023-04-06T14:25:21.601Z,31.96
2023-04-06T14:27:48.498Z,31.75
2023-04-06T14:30:15.876Z,31.13
2023-04-06T14:35:23.739Z,30.84
2023-04-06T14:37:51.047Z,31.59
2023-04-06T14:40:25.819Z,31.55
2023-04-06T14:42:54.290Z,31.36
2023-04-06T14:45:28.115Z,32.46
2023-04-06T14:47:56.213Z,31.98
2023-04-06T14:50:22.960Z,32.19
2023-04-06T14:52:53.348Z,31.71
2023-04-06T14:55:21.042Z,31.99
2023-04-06T14:57:51.723Z,32.10
2023-04-06T15:00:19.052Z,32.48
2023-04-06T15:02:57.228Z,31.80
2023-04-06T15:05:23.953Z,31.17
2023-04-06T15:07:51.914Z,32.04
2023-04-06T15:10:19.939Z,32.26
2023-04-06T15:12:50.119Z,32.29
2023-04-06T15:15:19.437Z,31.72
2023-04-06T15:17:46.390Z,31.73
2023-04-06T15:20:13.561Z,31.51
2023-04-06T15:22:48.135Z,31.42
2023-04-06T15:25:24.651Z,31.73
2023-04-06T15:27:53.192Z,31.70
2023-04-06T15:30:19.953Z,31.23
2023-04-06T15:33:02.674Z,31.22
2023-04-06T15:35:31.164Z,31.41
2023-04-06T15:37:58.217Z,32.40
2023-04-06T15:40:26.497Z,32.29
2023-04-06T15:43:00.615Z,32.48
2023-04-06T15:45:28.715Z,31.90
2023-04-06T15:47:58.886Z,32.15
2023-04-06T15:53:10.402Z,31.54
2023-04-06T15:55:38.285Z,31.56
2023-04-06T15:58:04.999Z,31.61
2023-04-06T16:00:33.177Z,32.29
2023-04-06T16:03:07.955Z,32.73
2023-04-06T16:05:48.359Z,32.43
2023-04-06T16:08:21.024Z,32.67
2023-04-06T16:10:51.662Z,33.04
2023-04-06T16:13:18.142Z,33.57
2023-04-06T16:15:44.856Z,33.75
2023-04-06T16:18:11.992Z,33.61
2023-04-06T16:20:40.659Z,33.54
2023-04-06T16:23:09.285Z,34.00
2023-04-06T16:25:36.484Z,34.75
2023-04-06T16:28:03.487Z,34.67
2023-04-06T16:30:31.494Z,35.22
2023-04-06T16:33:01.915Z,34.56
2023-04-06T16:35:37.105Z,35.11
2023-04-06T16:38:07.606Z,35.07
2023-04-06T16:46:47.271Z,35.28
2023-04-06T16:52:06.276Z,36.13
2023-04-06T16:54:38.046Z,36.37
2023-04-06T16:57:06.481Z,36.92
2023-04-06T16:59:37.125Z,37.53
2023-04-06T17:02:19.252Z,37.31
2023-04-06T17:04:45.913Z,37.94
2023-04-06T17:07:17.857Z,38.25
2023-04-06T17:09:57.645Z,38.54
2023-04-06T17:12:24.478Z,38.88
2023-04-06T17:14:59.129Z,39.36
2023-04-06T17:17:28.278Z,39.30
2023-04-06T17:20:02.703Z,39.00
2023-04-06T17:22:31.210Z,38.77
2023-04-06T17:27:39.721Z,38.71
2023-04-06T17:30:09.342Z,38.45
2023-04-06T17:32:37.739Z,38.87
2023-04-06T17:35:31.151Z,39.15
2023-04-06T17:37:57.955Z,38.85
2023-04-06T17:40:28.923Z,39.37
2023-04-06T17:42:55.988Z,39.75
2023-04-06T17:45:23.903Z,40.15
2023-04-06T17:47:53.160Z,41.05
2023-04-06T17:50:39.417Z,41.71
2023-04-06T17:53:11.684Z,41.37
2023-04-06T17:55:42.690Z,41.85
2023-04-06T17:58:13.006Z,42.32
2023-04-06T18:00:47.656Z,42.58
2023-04-06T18:03:23.356Z,42.67
2023-04-06T18:05:52.817Z,42.84
2023-04-06T18:08:20.014Z,43.65
2023-04-06T18:10:49.751Z,43.91
2023-04-06T18:13:16.445Z,44.37
2023-04-06T18:15:43.508Z,44.98
2023-04-06T18:18:12.108Z,45.75
2023-04-06T18:20:44.929Z,45.76
2023-04-06T18:23:17.614Z,46.60
2023-04-06T18:25:46.543Z,47.41
2023-04-06T18:28:15.350Z,48.47
2023-04-06T18:30:44.761Z,49.87
2023-04-06T18:33:20.267Z,50.96
2023-04-06T18:35:47.322Z,51.48
2023-04-06T18:38:15.916Z,52.25
2023-04-06T18:40:44.426Z,53.00
2023-04-06T18:56:49.141Z,59.59
2023-04-06T18:59:28.640Z,64.58
2023-04-06T19:01:59.014Z,71.36
2023-04-06T19:04:36.922Z,77.01
2023-04-06T19:09:49.167Z,85.81
2023-04-06T19:12:16.257Z,89.60
2023-04-06T19:14:55.520Z,94.28
2023-04-06T19:17:22.547Z,98.07
2023-04-06T19:19:52.312Z,100.00
2023-04-06T19:22:21.745Z,100.00
2023-04-06T19:24:53.912Z,100.00
2023-04-06T19:27:20.705Z,100.00
2023-04-06T19:29:50.978Z,100.00
2023-04-06T19:32:18.093Z,100.00
2023-04-06T19:34:52.673Z,100.00
2023-04-06T19:37:21.040Z,100.00
2023-04-06T19:39:50.094Z,100.00
2023-04-06T19:42:19.721Z,100.00
2023-04-06T19:44:50.214Z,100.00
2023-04-06T19:47:17.364Z,100.00
2023-04-06T19:52:24.698Z,100.00
2023-04-06T19:54:51.574Z,100.00
2023-04-06T19:57:18.876Z,100.00
2023-04-06T19:59:48.160Z,100.00
2023-04-06T20:02:15.568Z,100.00
2023-04-06T20:04:42.666Z,100.00
2023-04-06T20:07:12.598Z,100.00
2023-04-06T20:09:40.399Z,100.00
2023-04-06T20:12:10.270Z,100.00
2023-04-06T20:14:40.001Z,100.00
2023-04-06T20:17:07.992Z,100.00
2023-04-06T20:19:46.071Z,100.00
2023-04-06T20:22:13.186Z,100.00
2023-04-06T20:24:40.412Z,100.00
2023-04-06T20:27:08.534Z,100.00
2023-04-06T20:29:35.696Z,100.00
2023-04-06T20:32:03.668Z,100.00
2023-04-06T20:34:30.346Z,100.00
2023-04-06T20:36:58.487Z,100.00
2023-04-06T20:39:34.864Z,100.00
2023-04-06T20:42:01.711Z,100.00
2023-04-06T20:44:31.316Z,100.00
2023-04-06T20:47:02.256Z,100.00
2023-04-06T20:49:30.997Z,100.00
2023-04-06T20:52:04.272Z,100.00
2023-04-06T20:54:31.380Z,100.00
2023-04-06T20:57:04.518Z,100.00
2023-04-06T20:59:32.818Z,100.00
2023-04-06T21:02:03.807Z,100.00
2023-04-06T21:04:31.117Z,100.00
2023-04-06T21:07:00.037Z,100.00
2023-04-06T21:09:31.446Z,100.00
2023-04-06T21:11:58.839Z,100.00
2023-04-06T21:14:26.587Z,100.00
2023-04-06T21:17:02.553Z,100.00
2023-04-06T21:19:35.834Z,100.00
2023-04-06T21:22:05.233Z,100.00
2023-04-06T21:24:41.178Z,100.00
2023-04-06T21:27:17.923Z,100.00
2023-04-06T21:29:50.140Z,100.00
2023-04-06T21:32:17.816Z,100.00
2023-04-06T21:34:50.435Z,100.00
2023-04-06T21:40:06.021Z,100.00
2023-04-06T21:42:36.469Z,100.00
2023-04-06T21:45:03.748Z,100.00
2023-04-06T21:47:46.352Z,100.00
2023-04-06T21:50:20.356Z,100.00
2023-04-06T21:52:49.801Z,100.00
2023-04-06T21:55:16.593Z,100.00
2023-04-06T21:57:57.774Z,100.00
2023-04-06T22:00:27.953Z,100.00
2023-04-06T22:02:57.475Z,100.00
2023-04-06T22:05:26.395Z,100.00
2023-04-06T22:07:54.466Z,100.00
2023-04-06T22:10:24.753Z,100.00
2023-04-06T22:12:59.601Z,100.00
2023-04-06T22:15:35.602Z,100.00
2023-04-06T22:18:05.269Z,100.00
2023-04-06T22:20:33.676Z,100.00
2023-04-06T22:23:03.261Z,100.00
2023-04-06T22:25:36.087Z,100.00
2023-04-06T22:28:10.565Z,100.00
2023-04-06T22:31:10.692Z,100.00
2023-04-06T22:33:38.856Z,100.00
2023-04-06T22:36:11.952Z,100.00
2023-04-06T22:38:38.728Z,100.00
2023-04-06T22:41:07.303Z,100.00
2023-04-06T22:43:36.763Z,100.00
2023-04-06T22:46:06.274Z,100.00
2023-04-06T22:48:36.403Z,100.00
2023-04-06T22:51:05.096Z,100.00
2023-04-06T22:53:32.387Z,100.00
2023-04-06T22:55:59.825Z,100.00
2023-04-06T22:58:28.001Z,100.00
2023-04-06T23:00:55.665Z,100.00
2023-04-06T23:03:24.905Z,100.00
2023-04-06T23:05:53.826Z,100.00
2023-04-06T23:08:20.886Z,100.00
2023-04-06T23:10:54.256Z,100.00
2023-04-06T23:13:21.099Z,100.00
2023-04-06T23:15:49.124Z,100.00
2023-04-06T23:18:15.805Z,100.00
2023-04-06T23:20:43.629Z,100.00
2023-04-06T23:23:10.549Z,100.00
2023-04-06T23:25:44.607Z,100.00
2023-04-06T23:28:11.481Z,100.00
2023-04-06T23:30:38.179Z,100.00
2023-04-06T23:33:05.608Z,100.00
2023-04-06T23:35:32.435Z,100.00
2023-04-06T23:38:01.927Z,100.00
2023-04-06T23:40:28.884Z,100.00
2023-04-06T23:42:55.848Z,100.00
2023-04-06T23:45:22.719Z,100.00
2023-04-06T23:47:50.069Z,100.00
2023-04-06T23:50:18.251Z,100.00
2023-04-06T23:52:47.038Z,100.00
2023-04-06T23:55:13.609Z,100.00
2023-04-06T23:57:40.556Z,100.00
